Terminal Aerodrome Forecast
Issued by NWS Charleston, WV

Home | Current Version | Previous Version | Text Only | Print | Product List | Glossary On
Versions: 1 2 3 4 5 6 7 8 9 10 11 12 13 14 15 16 17 18 19 20 21 22 23 24 25
000
FTUS41 KRLX 240531
TAFEKN
TAF
KEKN 240531Z 2406/2506 24015G19KT P6SM OVC024
     FM240800 28013G19KT 5SM -SHSN OVC014
     FM240900 29013G19KT 3SM -SHSN OVC010
      TEMPO 2409/2413 1SM -SHSN OVC008
     FM241500 29010KT P6SM OVC015
     FM241800 28008KT P6SM OVC021=

USA.gov is the U.S. government's official web portal to all federal, state and local government web resources and services.